Terminal Aerodrome Forecast
Issued by NWS

Home | Current Version | Previous Version | Text Only | Print | Product List | Glossary On
Versions: 1 2 3 4 5 6 7 8 9 10 11 12 13 14
000
FTPA31 PHFO 131742
TAFHJH
TAF
PHJH 131742Z 1318/1418 02015KT P6SM VCSH SCT025 BKN040
     FM132000 03016G23KT P6SM FEW025 SCT045 BKN070
     FM140600 03013KT P6SM SCT040
      AMD NOT SKED AFT 140600=

USA.gov is the U.S. government's official web portal to all federal, state and local government web resources and services.